createdAt,value
2019-04-16T00:01:38.404Z,42.88
2019-04-16T00:05:22.365Z,35.58
2019-04-16T00:08:33.120Z,36.68
2019-04-16T00:11:21.656Z,34.27
2019-04-16T00:14:13.640Z,38.17
2019-04-16T00:16:46.930Z,29.65
2019-04-16T00:19:21.581Z,35.70
2019-04-16T00:22:12.592Z,36.95
2019-04-16T00:24:50.120Z,32.20
2019-04-16T00:27:28.312Z,28.92
2019-04-16T00:30:03.888Z,29.60
2019-04-16T00:32:38.022Z,20.45
2019-04-16T00:35:15.645Z,38.95
2019-04-16T00:37:51.426Z,38.13
2019-04-16T00:40:26.398Z,41.08
2019-04-16T00:42:57.701Z,41.00
2019-04-16T00:45:30.919Z,38.23
2019-04-16T00:48:05.600Z,49.05
2019-04-16T00:50:43.674Z,30.32
2019-04-16T00:53:16.818Z,24.82
2019-04-16T00:55:54.295Z,38.53
2019-04-16T00:58:28.770Z,35.98
2019-04-16T01:01:08.087Z,38.92
2019-04-16T01:03:43.116Z,33.08
2019-04-16T01:06:16.380Z,34.00
2019-04-16T01:08:54.709Z,35.95
2019-04-16T01:11:26.170Z,31.35
2019-04-16T01:13:59.423Z,31.20
2019-04-16T01:16:35.805Z,34.75
2019-04-16T01:19:09.992Z,26.80
2019-04-16T01:21:47.344Z,30.23
2019-04-16T01:24:22.278Z,25.88
2019-04-16T01:26:58.390Z,24.52
2019-04-16T01:29:35.245Z,26.97
2019-04-16T01:32:35.436Z,40.75
2019-04-16T01:35:27.621Z,32.55
2019-04-16T01:38:18.661Z,28.55
2019-04-16T01:41:00.852Z,29.42
2019-04-16T01:43:41.131Z,26.45
2019-04-16T01:46:09.971Z,24.63
2019-04-16T01:48:50.514Z,23.95
2019-04-16T01:51:25.452Z,24.40
2019-04-16T01:53:57.976Z,25.37
2019-04-16T01:56:35.242Z,24.98
2019-04-16T01:59:14.073Z,23.45
2019-04-16T02:01:47.364Z,20.17
2019-04-16T02:04:22.167Z,21.45
2019-04-16T02:06:57.874Z,24.47
2019-04-16T02:09:34.539Z,26.05
2019-04-16T02:12:06.338Z,20.97
2019-04-16T02:14:41.466Z,24.00
2019-04-16T02:17:16.941Z,17.37
2019-04-16T02:19:50.402Z,21.48
2019-04-16T02:22:27.874Z,21.65
2019-04-16T02:25:02.776Z,17.80
2019-04-16T02:27:40.276Z,21.82
2019-04-16T02:30:17.583Z,21.77
2019-04-16T02:32:51.460Z,21.50
2019-04-16T02:35:32.707Z,20.45
2019-04-16T02:38:10.197Z,19.45
2019-04-16T02:40:39.173Z,17.20
2019-04-16T02:43:18.030Z,20.45
2019-04-16T02:45:47.527Z,16.27
2019-04-16T02:48:22.355Z,19.82
2019-04-16T02:51:07.411Z,16.62
2019-04-16T02:54:02.057Z,23.67
2019-04-16T02:57:01.582Z,22.50
2019-04-16T02:59:45.700Z,19.35
2019-04-16T03:02:33.070Z,21.70
2019-04-16T03:05:11.937Z,20.97
2019-04-16T03:07:45.351Z,22.25
2019-04-16T03:10:18.695Z,31.23
2019-04-16T03:12:55.422Z,28.75
2019-04-16T03:15:56.814Z,23.85
2019-04-16T03:18:37.104Z,31.97
2019-04-16T03:21:11.870Z,25.00
2019-04-16T03:23:45.276Z,22.58
2019-04-16T03:26:18.613Z,19.70
2019-04-16T03:28:51.979Z,22.80
2019-04-16T03:31:26.500Z,21.37
2019-04-16T03:34:02.710Z,20.23
2019-04-16T03:36:37.760Z,23.15
2019-04-16T03:39:13.188Z,24.45
2019-04-16T03:41:46.243Z,25.50
2019-04-16T03:44:21.267Z,26.35
2019-04-16T03:46:54.599Z,28.62
2019-04-16T03:49:28.504Z,28.27
2019-04-16T03:52:04.785Z,28.00
2019-04-16T03:54:36.941Z,26.00
2019-04-16T03:57:10.313Z,28.65
2019-04-16T03:59:49.463Z,62.03
2019-04-16T04:02:23.116Z,51.02
2019-04-16T04:04:57.607Z,34.50
2019-04-16T04:07:33.383Z,36.23
2019-04-16T04:10:11.569Z,29.23
2019-04-16T04:12:50.194Z,29.65
2019-04-16T04:15:26.368Z,23.52
2019-04-16T04:18:03.201Z,26.33
2019-04-16T04:20:37.630Z,27.05
2019-04-16T04:23:11.072Z,33.30
2019-04-16T04:25:45.053Z,25.37
2019-04-16T04:28:29.199Z,27.75
2019-04-16T04:31:05.588Z,25.15
2019-04-16T04:33:42.690Z,20.82
2019-04-16T04:36:14.824Z,29.65
2019-04-16T04:38:53.548Z,23.85
2019-04-16T04:41:29.124Z,25.45
2019-04-16T04:44:14.048Z,29.20
2019-04-16T04:46:47.331Z,27.00
2019-04-16T04:49:29.931Z,31.80
2019-04-16T04:51:57.170Z,27.27
2019-04-16T04:54:30.775Z,29.95
2019-04-16T04:57:04.499Z,29.98
2019-04-16T04:59:37.791Z,26.85
2019-04-16T05:02:14.536Z,27.70
2019-04-16T05:05:10.992Z,25.23
2019-04-16T05:07:44.282Z,26.52
2019-04-16T05:10:19.569Z,27.52
2019-04-16T05:12:53.569Z,25.70
2019-04-16T05:15:29.441Z,27.32
2019-04-16T05:18:06.239Z,24.70
2019-04-16T05:20:41.290Z,25.77
2019-04-16T05:23:17.853Z,26.17
2019-04-16T05:25:55.970Z,28.42
2019-04-16T05:28:29.193Z,30.20
2019-04-16T05:31:03.886Z,34.08
2019-04-16T05:33:39.651Z,34.95
2019-04-16T05:36:14.179Z,42.00
2019-04-16T05:38:49.160Z,29.82
2019-04-16T05:41:24.308Z,33.67
2019-04-16T05:43:58.474Z,31.75
2019-04-16T05:46:34.708Z,27.93
2019-04-16T05:49:09.172Z,28.52
2019-04-16T05:51:42.272Z,28.60
2019-04-16T05:54:44.324Z,31.37
2019-04-16T05:57:25.644Z,36.13
2019-04-16T06:00:02.794Z,45.28
2019-04-16T06:02:41.956Z,36.48
2019-04-16T06:05:21.119Z,34.95
2019-04-16T06:07:51.823Z,32.10
2019-04-16T06:10:25.096Z,33.78
2019-04-16T06:13:14.872Z,30.92
2019-04-16T06:16:26.179Z,30.75
2019-04-16T06:19:11.536Z,36.30
2019-04-16T06:22:21.841Z,36.68
2019-04-16T06:25:16.572Z,36.35
2019-04-16T06:28:00.869Z,36.55
2019-04-16T06:30:53.798Z,32.83
2019-04-16T06:33:54.496Z,33.88
2019-04-16T06:36:45.103Z,34.70
2019-04-16T06:39:33.003Z,37.45
2019-04-16T06:42:13.288Z,40.00
2019-04-16T06:45:08.305Z,36.60
2019-04-16T06:48:00.151Z,34.92
2019-04-16T06:50:59.621Z,35.20
2019-04-16T06:53:56.712Z,40.65
2019-04-16T06:56:41.940Z,32.03
2019-04-16T06:59:45.982Z,36.23
2019-04-16T07:02:43.199Z,35.80
2019-04-16T07:05:31.934Z,51.55
2019-04-16T07:08:37.462Z,38.70
2019-04-16T07:11:05.343Z,36.17
2019-04-16T07:13:41.925Z,37.25
2019-04-16T07:16:19.777Z,36.13
2019-04-16T07:19:16.803Z,30.35
2019-04-16T07:21:49.944Z,37.23
2019-04-16T07:24:30.088Z,33.65
2019-04-16T07:27:01.943Z,37.05
2019-04-16T07:29:57.937Z,34.45
2019-04-16T07:33:06.537Z,32.75
2019-04-16T07:36:15.964Z,32.00
2019-04-16T07:39:13.332Z,30.82
2019-04-16T07:42:09.370Z,32.42
2019-04-16T07:44:55.518Z,30.45
2019-04-16T07:47:43.686Z,36.85
2019-04-16T07:50:35.656Z,33.40
2019-04-16T07:53:38.386Z,31.07
2019-04-16T07:56:20.564Z,29.45
2019-04-16T07:59:12.936Z,25.72
2019-04-16T08:01:47.722Z,32.17
2019-04-16T08:04:36.477Z,29.65
2019-04-16T08:07:20.198Z,21.50
2019-04-16T08:09:53.861Z,24.02
2019-04-16T08:12:36.980Z,28.85
2019-04-16T08:15:14.195Z,22.48
2019-04-16T08:17:54.610Z,28.83
2019-04-16T08:20:27.989Z,27.42
2019-04-16T08:23:03.209Z,26.62
2019-04-16T08:25:39.124Z,24.27
2019-04-16T08:28:24.355Z,21.85
2019-04-16T08:31:00.764Z,22.80
2019-04-16T08:33:34.166Z,25.00
2019-04-16T08:36:24.825Z,19.32
2019-04-16T08:39:16.209Z,20.65
2019-04-16T08:41:52.089Z,19.37
2019-04-16T08:44:42.005Z,19.00
2019-04-16T08:47:17.551Z,16.17
2019-04-16T08:50:11.549Z,17.48
2019-04-16T08:52:58.697Z,14.63
2019-04-16T08:55:31.788Z,18.82
2019-04-16T08:58:22.759Z,19.35
2019-04-16T09:01:18.768Z,22.37
2019-04-16T09:03:50.687Z,43.95
2019-04-16T09:06:26.500Z,16.07
2019-04-16T09:09:14.230Z,21.48
2019-04-16T09:12:14.102Z,16.00
2019-04-16T09:14:56.061Z,16.82
2019-04-16T09:17:34.873Z,24.10
2019-04-16T09:20:13.519Z,15.38
2019-04-16T09:22:49.466Z,14.40
2019-04-16T09:25:33.070Z,16.50
2019-04-16T09:28:25.839Z,13.83
2019-04-16T09:31:30.677Z,15.90
2019-04-16T09:34:22.512Z,13.65
2019-04-16T09:37:25.398Z,13.93
2019-04-16T09:40:18.075Z,12.75
2019-04-16T09:43:16.172Z,12.88
2019-04-16T09:45:41.808Z,13.75
2019-04-16T09:48:27.134Z,17.23
2019-04-16T09:51:02.882Z,17.67
2019-04-16T09:53:40.379Z,12.37
2019-04-16T09:56:32.245Z,14.43
2019-04-16T09:59:15.851Z,12.65
2019-04-16T10:02:10.934Z,12.43
2019-04-16T10:05:01.491Z,14.28
2019-04-16T10:07:41.098Z,11.70
2019-04-16T10:10:32.168Z,17.60
2019-04-16T10:13:14.346Z,13.08
2019-04-16T10:15:47.538Z,11.73
2019-04-16T10:18:37.902Z,11.97
2019-04-16T10:21:18.776Z,12.00
2019-04-16T10:24:35.825Z,11.88
2019-04-16T10:27:34.025Z,9.40
2019-04-16T10:30:35.937Z,11.78
2019-04-16T10:33:15.066Z,13.28
2019-04-16T10:35:48.214Z,10.60
2019-04-16T10:38:55.072Z,11.83
2019-04-16T10:41:58.438Z,14.43
2019-04-16T10:44:49.925Z,16.48
2019-04-16T10:48:03.711Z,12.82
2019-04-16T10:51:04.943Z,11.93
2019-04-16T10:53:53.841Z,11.50
2019-04-16T10:56:46.487Z,11.05
2019-04-16T10:59:49.590Z,10.68
2019-04-16T11:02:44.062Z,10.55
2019-04-16T11:05:41.752Z,12.82
2019-04-16T11:08:15.323Z,13.13
2019-04-16T11:10:48.337Z,12.63
2019-04-16T11:13:58.350Z,12.47
2019-04-16T11:16:37.210Z,12.33
2019-04-16T11:19:27.663Z,11.48
2019-04-16T11:22:16.062Z,13.38
2019-04-16T11:24:52.398Z,13.55
2019-04-16T11:27:25.550Z,11.95
2019-04-16T11:30:31.285Z,11.78
2019-04-16T11:33:07.682Z,14.87
2019-04-16T11:35:40.854Z,15.18
2019-04-16T11:38:31.413Z,13.70
2019-04-16T11:41:07.323Z,14.03
2019-04-16T11:43:57.733Z,14.63
2019-04-16T11:46:46.662Z,13.35
2019-04-16T11:49:34.924Z,13.65
2019-04-16T11:52:25.881Z,14.60
2019-04-16T11:55:01.503Z,12.28
2019-04-16T11:57:40.529Z,10.72
2019-04-16T12:00:50.929Z,10.82
2019-04-16T12:03:37.033Z,15.45
2019-04-16T12:06:53.301Z,12.90
2019-04-16T12:09:54.274Z,9.88
2019-04-16T12:13:04.405Z,10.43
2019-04-16T12:15:57.367Z,11.78
2019-04-16T12:18:35.741Z,7.37
2019-04-16T12:21:45.265Z,42.93
2019-04-16T12:24:54.901Z,11.53
2019-04-16T12:27:45.795Z,13.75
2019-04-16T12:31:10.471Z,13.32
2019-04-16T12:34:05.318Z,7.35
2019-04-16T12:36:59.746Z,9.55
2019-04-16T12:39:50.024Z,10.80
2019-04-16T12:42:57.309Z,10.75
2019-04-16T12:45:49.187Z,10.80
2019-04-16T12:48:59.448Z,9.28
2019-04-16T12:51:57.318Z,10.95
2019-04-16T12:55:04.512Z,11.45
2019-04-16T12:57:49.341Z,7.53
2019-04-16T13:00:37.151Z,13.22
2019-04-16T13:03:52.374Z,10.20
2019-04-16T13:06:55.234Z,9.03
2019-04-16T13:09:45.983Z,14.53
2019-04-16T13:12:40.961Z,11.18
2019-04-16T13:15:31.635Z,12.00
2019-04-16T13:18:08.199Z,12.78
2019-04-16T13:21:18.096Z,11.30
2019-04-16T13:24:19.342Z,19.02
2019-04-16T13:27:08.897Z,10.82
2019-04-16T13:29:41.972Z,9.85
2019-04-16T13:32:27.926Z,14.68
2019-04-16T13:35:01.191Z,13.38
2019-04-16T13:37:41.385Z,16.27
2019-04-16T13:40:16.208Z,8.68
2019-04-16T13:42:51.977Z,11.35
2019-04-16T13:45:40.572Z,10.85
2019-04-16T13:48:35.151Z,16.32
2019-04-16T13:51:15.122Z,10.10
2019-04-16T13:54:00.361Z,12.98
2019-04-16T13:57:00.007Z,10.48
2019-04-16T14:00:04.364Z,11.10
2019-04-16T14:03:13.887Z,11.22
2019-04-16T14:05:47.239Z,13.68
2019-04-16T14:08:20.264Z,15.38
2019-04-16T14:10:53.338Z,17.23
2019-04-16T14:13:26.462Z,11.55
2019-04-16T14:15:59.515Z,12.50
2019-04-16T14:18:35.615Z,9.85
2019-04-16T14:21:08.568Z,12.00
2019-04-16T14:23:41.706Z,10.53
2019-04-16T14:26:16.385Z,11.88
2019-04-16T14:28:52.437Z,13.70
2019-04-16T14:31:25.868Z,11.75
2019-04-16T14:34:16.647Z,20.32
2019-04-16T14:36:53.119Z,14.60
2019-04-16T14:39:35.142Z,16.57
2019-04-16T14:42:08.442Z,16.55
2019-04-16T14:44:45.541Z,13.45
2019-04-16T14:47:18.583Z,15.40
2019-04-16T14:49:51.796Z,51.13
2019-04-16T14:52:25.898Z,32.00
2019-04-16T14:55:10.486Z,22.52
2019-04-16T14:58:00.853Z,24.95
2019-04-16T15:00:49.123Z,11.40
2019-04-16T15:03:43.098Z,11.48
2019-04-16T15:06:39.687Z,14.60
2019-04-16T15:09:30.208Z,15.55
2019-04-16T15:12:21.067Z,13.30
2019-04-16T15:14:58.610Z,15.30
2019-04-16T15:17:44.485Z,12.28
2019-04-16T15:20:39.537Z,12.75
2019-04-16T15:23:30.710Z,12.03
2019-04-16T15:26:37.661Z,12.13
2019-04-16T15:29:41.905Z,13.98
2019-04-16T15:32:34.096Z,13.85
2019-04-16T15:35:13.867Z,15.78
2019-04-16T15:38:02.719Z,21.20
2019-04-16T15:40:40.299Z,18.35
2019-04-16T15:43:30.255Z,12.82
2019-04-16T15:46:26.153Z,15.30
2019-04-16T15:49:19.422Z,13.48
2019-04-16T15:52:02.710Z,26.07
2019-04-16T15:54:43.903Z,15.88
2019-04-16T15:57:50.858Z,27.77
2019-04-16T16:00:48.905Z,15.75
2019-04-16T16:03:49.969Z,13.70
2019-04-16T16:06:24.798Z,16.70
2019-04-16T16:09:22.808Z,23.57
2019-04-16T16:12:00.975Z,23.07
2019-04-16T16:14:38.545Z,24.10
2019-04-16T16:17:09.474Z,16.57
2019-04-16T16:19:42.550Z,16.62
2019-04-16T16:22:16.854Z,16.77
2019-04-16T16:24:49.883Z,23.10
2019-04-16T16:27:22.972Z,15.30
2019-04-16T16:29:56.189Z,20.60
2019-04-16T16:32:29.222Z,22.82
2019-04-16T16:35:02.357Z,29.52
2019-04-16T16:37:36.894Z,32.30
2019-04-16T16:40:14.628Z,31.57
2019-04-16T16:42:46.705Z,37.28
2019-04-16T16:45:22.063Z,39.23
2019-04-16T16:47:56.521Z,44.53
2019-04-16T16:50:29.734Z,48.85
2019-04-16T16:53:25.251Z,21.17
2019-04-16T16:56:02.296Z,22.77
2019-04-16T16:58:54.518Z,24.15
2019-04-16T17:01:35.994Z,20.88
2019-04-16T17:04:12.976Z,22.37
2019-04-16T17:06:46.258Z,22.50
2019-04-16T17:09:27.140Z,27.20
2019-04-16T17:11:59.469Z,24.30
2019-04-16T17:14:36.270Z,28.67
2019-04-16T17:17:14.177Z,29.98
2019-04-16T17:19:42.329Z,29.02
2019-04-16T17:22:17.400Z,32.42
2019-04-16T17:24:50.462Z,34.33
2019-04-16T17:27:25.936Z,51.65
2019-04-16T17:29:59.017Z,55.75
2019-04-16T17:32:32.289Z,40.30
2019-04-16T17:35:07.580Z,53.65
2019-04-16T17:37:48.372Z,51.18
2019-04-16T17:40:33.643Z,40.85
2019-04-16T17:43:15.669Z,49.18
2019-04-16T17:46:14.508Z,48.40
2019-04-16T17:49:09.657Z,48.63
2019-04-16T17:51:54.731Z,47.17
2019-04-16T17:54:34.504Z,43.08
2019-04-16T17:57:16.994Z,54.33
2019-04-16T18:00:00.461Z,53.60
2019-04-16T18:03:04.561Z,50.17
2019-04-16T18:05:42.788Z,48.20
2019-04-16T18:08:40.817Z,44.83
2019-04-16T18:11:17.729Z,41.45
2019-04-16T18:13:58.047Z,57.90
2019-04-16T18:16:46.122Z,76.35
2019-04-16T18:19:37.069Z,107.85
2019-04-16T18:22:19.558Z,125.20
2019-04-16T18:25:21.353Z,129.27
2019-04-16T18:28:06.217Z,132.90
2019-04-16T18:30:57.309Z,131.40
2019-04-16T18:33:48.524Z,131.25
2019-04-16T18:36:34.596Z,147.43
2019-04-16T18:39:27.235Z,148.85
2019-04-16T18:42:19.178Z,156.50
2019-04-16T18:45:11.404Z,182.45
2019-04-16T18:48:13.862Z,173.95
2019-04-16T18:50:45.287Z,158.03
2019-04-16T18:53:18.892Z,179.65
2019-04-16T18:55:52.394Z,208.75
2019-04-16T18:58:26.681Z,246.57
2019-04-16T19:01:03.020Z,261.55
2019-04-16T19:03:37.386Z,228.37
2019-04-16T19:06:13.941Z,239.05
2019-04-16T19:08:50.671Z,259.02
2019-04-16T19:11:24.369Z,223.80
2019-04-16T19:14:03.728Z,207.40
2019-04-16T19:16:38.065Z,188.00
2019-04-16T19:19:12.288Z,162.68
2019-04-16T19:21:51.343Z,169.47
2019-04-16T19:24:24.263Z,175.42
2019-04-16T19:26:57.731Z,177.68
2019-04-16T19:29:35.854Z,182.00
2019-04-16T19:32:10.458Z,160.97
2019-04-16T19:34:46.986Z,160.28
2019-04-16T19:37:20.504Z,183.60
2019-04-16T19:39:56.260Z,190.65
2019-04-16T19:42:33.368Z,200.90
2019-04-16T19:45:08.654Z,189.50
2019-04-16T19:47:43.091Z,186.75
2019-04-16T19:50:17.757Z,185.30
2019-04-16T19:52:54.997Z,192.90
2019-04-16T19:55:29.436Z,172.13
2019-04-16T19:58:02.620Z,159.75
2019-04-16T20:00:36.446Z,178.27
2019-04-16T20:03:13.188Z,179.63
2019-04-16T20:05:50.996Z,170.77
2019-04-16T20:08:24.228Z,165.15
2019-04-16T20:11:04.009Z,149.20
2019-04-16T20:13:37.511Z,159.40
2019-04-16T20:16:12.176Z,147.10
2019-04-16T20:18:51.080Z,154.85
2019-04-16T20:21:28.601Z,148.07
2019-04-16T20:24:02.062Z,148.35
2019-04-16T20:26:56.404Z,130.15
2019-04-16T20:29:47.555Z,75.97
2019-04-16T20:32:24.523Z,89.60
2019-04-16T20:35:00.511Z,99.90
2019-04-16T20:37:35.310Z,104.58
2019-04-16T20:40:14.687Z,104.45
2019-04-16T20:42:53.606Z,103.75
2019-04-16T20:45:27.526Z,91.85
2019-04-16T20:48:01.124Z,84.72
2019-04-16T20:50:37.181Z,72.90
2019-04-16T20:53:21.703Z,81.72
2019-04-16T20:55:57.783Z,74.17
2019-04-16T20:58:34.896Z,73.72
2019-04-16T21:01:32.803Z,66.92
2019-04-16T21:04:05.037Z,63.73
2019-04-16T21:06:32.958Z,69.92
2019-04-16T21:09:10.242Z,64.03
2019-04-16T21:11:52.946Z,56.30
2019-04-16T21:14:31.996Z,53.50
2019-04-16T21:17:22.199Z,62.38
2019-04-16T21:19:55.365Z,53.52
2019-04-16T21:22:28.963Z,57.05
2019-04-16T21:25:13.797Z,55.52
2019-04-16T21:27:58.503Z,54.60
2019-04-16T21:30:47.058Z,54.00
2019-04-16T21:33:41.278Z,52.35
2019-04-16T21:36:33.875Z,104.50
2019-04-16T21:39:23.117Z,134.22
2019-04-16T21:42:02.372Z,85.53
2019-04-16T21:44:44.564Z,114.10
2019-04-16T21:47:23.599Z,167.15
2019-04-16T21:49:59.734Z,90.03
2019-04-16T21:52:36.885Z,112.05
2019-04-16T21:55:13.910Z,132.95
2019-04-16T21:57:48.873Z,126.78
2019-04-16T22:00:48.353Z,99.00
2019-04-16T22:03:27.328Z,74.58
2019-04-16T22:06:01.049Z,71.50
2019-04-16T22:08:34.412Z,49.38
2019-04-16T22:11:11.780Z,46.40
2019-04-16T22:13:44.113Z,46.85
2019-04-16T22:16:18.938Z,43.85
2019-04-16T22:18:55.092Z,67.37
2019-04-16T22:21:30.630Z,111.57
2019-04-16T22:24:05.244Z,76.90
2019-04-16T22:26:40.135Z,54.50
2019-04-16T22:29:15.798Z,35.65
2019-04-16T22:31:52.676Z,38.48
2019-04-16T22:34:23.215Z,37.13
2019-04-16T22:36:58.070Z,98.52
2019-04-16T22:39:35.818Z,189.57
2019-04-16T22:42:35.150Z,62.15
2019-04-16T22:45:32.022Z,63.83
2019-04-16T22:48:09.105Z,69.32
2019-04-16T22:50:44.696Z,102.62
2019-04-16T22:53:18.063Z,117.72
2019-04-16T22:55:56.322Z,110.97
2019-04-16T22:58:46.525Z,157.47
2019-04-16T23:01:23.520Z,145.40
2019-04-16T23:03:58.856Z,82.25
2019-04-16T23:06:38.680Z,83.78
2019-04-16T23:09:17.904Z,44.53
2019-04-16T23:11:52.688Z,38.35
2019-04-16T23:14:26.193Z,58.30
2019-04-16T23:17:01.266Z,30.97
2019-04-16T23:19:40.649Z,53.08
2019-04-16T23:22:16.401Z,31.82
2019-04-16T23:24:51.737Z,42.08
2019-04-16T23:27:26.534Z,48.50
2019-04-16T23:30:00.422Z,40.75
2019-04-16T23:32:36.023Z,41.18
2019-04-16T23:35:13.477Z,39.45
2019-04-16T23:37:47.879Z,29.30
2019-04-16T23:40:21.225Z,28.17
2019-04-16T23:43:23.153Z,23.45
2019-04-16T23:46:31.092Z,28.57
2019-04-16T23:49:29.090Z,32.17
2019-04-16T23:52:12.827Z,33.42
2019-04-16T23:54:57.743Z,42.55
2019-04-16T23:57:56.801Z,42.43
